Time;durP1;ratioP1;P1;durP2;ratioP2;P2;SDS_P1;SDS_P2;PMS_P1;PMS_P2;Temp;Humidity;BMP_temperature;BMP_pressure;BME280_temperature;BME280_humidity;BME280_pressure;Samples;Min_cycle;Max_cycle;Signal;HPM_P1;HPM_P2
2023/09/04 00:02:24;;;;;;;20.52;8.13;;;;;;;28.21;nan;97677.84;4910783;29;20067;-64
2023/09/04 00:04:53;;;;;;;23.33;7.30;;;;;;;28.10;nan;97676.66;4921266;29;20048;-64
2023/09/04 00:07:22;;;;;;;26.65;8.73;;;;;;;28.15;nan;97681.88;4904622;29;20048;-64
2023/09/04 00:09:52;;;;;;;16.38;7.68;;;;;;;28.09;nan;97681.25;4926653;29;20047;-64
2023/09/04 00:12:21;;;;;;;27.05;10.00;;;;;;;28.12;nan;97686.06;4891978;29;20052;-64
2023/09/04 00:14:51;;;;;;;21.48;7.75;;;;;;;28.08;nan;97695.19;4910804;29;20059;-64
2023/09/04 00:17:22;;;;;;;16.10;7.60;;;;;;;28.09;nan;97683.19;4918555;29;20048;-64
2023/09/04 00:19:55;;;;;;;38.60;10.40;;;;;;;28.08;nan;97682.38;4929955;29;20511;-64
2023/09/04 00:22:27;;;;;;;21.15;8.85;;;;;;;27.99;nan;97687.09;4916985;29;20047;-64
2023/09/04 00:24:57;;;;;;;29.17;9.50;;;;;;;28.14;nan;97704.81;4912711;29;20112;-64
2023/09/04 00:27:26;;;;;;;39.50;11.38;;;;;;;28.10;nan;97701.16;4918665;29;20055;-64
2023/09/04 00:29:56;;;;;;;38.45;11.20;;;;;;;28.08;nan;97701.44;4929295;29;20146;-64
2023/09/04 00:32:25;;;;;;;28.75;10.10;;;;;;;28.12;nan;97701.59;4920564;29;20059;-64
2023/09/04 00:34:55;;;;;;;26.48;9.63;;;;;;;28.11;nan;97697.28;4880841;29;20065;-64
2023/09/04 00:37:24;;;;;;;31.95;9.82;;;;;;;28.01;nan;97697.66;4912737;29;20055;-64
2023/09/04 00:39:53;;;;;;;27.73;9.48;;;;;;;27.98;nan;97690.94;4891509;29;20056;-63
2023/09/04 00:42:22;;;;;;;24.90;9.65;;;;;;;27.96;nan;97689.69;4897010;29;20048;-65
2023/09/04 00:44:52;;;;;;;32.17;10.27;;;;;;;27.94;nan;97692.72;4899778;29;20492;-64
2023/09/04 00:47:23;;;;;;;30.63;10.18;;;;;;;27.96;nan;97693.19;4901255;29;20135;-64
2023/09/04 00:49:54;;;;;;;29.05;9.48;;;;;;;28.02;nan;97699.22;4892528;29;20584;-65
2023/09/04 00:52:26;;;;;;;28.60;10.60;;;;;;;27.93;nan;97698.47;4914319;29;20047;-64
2023/09/04 00:54:59;;;;;;;27.00;9.50;;;;;;;28.04;nan;97697.00;4910421;29;20087;-64
2023/09/04 00:57:30;;;;;;;30.43;9.33;;;;;;;27.96;nan;97701.38;4916599;29;20068;-63
2023/09/04 01:00:12;;;;;;;29.13;9.68;;;;;;;27.97;nan;97710.34;4910662;29;20294;-64
2023/09/04 01:02:42;;;;;;;20.92;9.45;;;;;;;28.04;nan;97707.88;4899812;29;20166;-63
2023/09/04 01:05:12;;;;;;;24.20;10.15;;;;;;;28.05;nan;97704.84;4892146;29;20520;-63
2023/09/04 01:07:42;;;;;;;25.38;11.50;;;;;;;28.11;nan;97708.97;4922379;29;20059;-64
2023/09/04 01:10:13;;;;;;;25.23;10.52;;;;;;;28.05;nan;97717.66;4913078;29;20059;-64
2023/09/04 01:13:09;;;;;;;25.98;10.98;;;;;;;28.12;nan;97717.94;4899188;29;20059;-63
2023/09/04 01:15:39;;;;;;;29.38;11.50;;;;;;;28.14;nan;97726.59;4909637;29;20048;-64
2023/09/04 01:18:09;;;;;;;28.98;11.20;;;;;;;28.17;nan;97722.41;4924183;29;20047;-64
2023/09/04 01:20:39;;;;;;;37.80;13.57;;;;;;;28.27;nan;97725.53;4917096;29;20150;-64
2023/09/04 01:23:08;;;;;;;26.70;10.88;;;;;;;28.23;nan;97732.78;4903876;29;20527;-64
2023/09/04 01:25:54;;;;;;;24.40;10.27;;;;;;;28.23;nan;97730.06;4925781;29;20056;-64
2023/09/04 01:28:58;;;;;;;25.70;11.20;;;;;;;28.36;nan;97733.66;4910001;29;20062;-64
2023/09/04 01:31:33;;;;;;;30.65;11.20;;;;;;;28.36;nan;97737.16;4927373;29;20147;-64
2023/09/04 01:34:10;;;;;;;28.40;10.60;;;;;;;28.32;nan;97740.88;4895703;29;20048;-64
2023/09/04 01:36:57;;;;;;;33.05;11.23;;;;;;;28.36;nan;97741.81;4916088;29;20530;-64
2023/09/04 01:39:27;;;;;;;29.52;10.77;;;;;;;28.41;nan;97750.56;4911832;29;20503;-64
2023/09/04 01:41:57;;;;;;;36.60;11.27;;;;;;;28.42;nan;97751.38;4923721;29;20044;-64
2023/09/04 01:44:26;;;;;;;32.95;11.68;;;;;;;28.47;nan;97751.19;4915908;29;20048;-64
2023/09/04 01:46:56;;;;;;;32.92;11.57;;;;;;;28.55;nan;97759.28;4898805;29;20057;-63
2023/09/04 01:49:26;;;;;;;33.72;11.55;;;;;;;28.64;nan;97752.97;4911240;29;20047;-64
2023/09/04 01:51:58;;;;;;;30.52;12.95;;;;;;;28.68;nan;97754.69;4924036;29;20048;-64
2023/09/04 01:54:28;;;;;;;30.30;12.60;;;;;;;28.76;nan;97753.88;4921391;29;20071;-64
2023/09/04 01:56:58;;;;;;;39.85;12.93;;;;;;;28.82;nan;97765.34;4913750;29;20071;-64
2023/09/04 01:59:27;;;;;;;28.65;12.82;;;;;;;28.93;nan;97756.44;4909083;29;20082;-64
2023/09/04 02:01:56;;;;;;;31.95;12.57;;;;;;;29.00;nan;97764.06;4906989;29;20059;-64
2023/09/04 02:04:25;;;;;;;32.70;12.88;;;;;;;29.05;nan;97761.13;4908621;29;20058;-64
2023/09/04 02:06:55;;;;;;;42.90;11.68;;;;;;;29.24;nan;97766.88;4904566;29;20059;-64
2023/09/04 02:09:24;;;;;;;33.22;10.57;;;;;;;29.41;nan;97766.72;4909881;29;20051;-64
2023/09/04 02:11:54;;;;;;;32.30;11.00;;;;;;;29.51;nan;97772.88;4920443;29;20057;-65
2023/09/04 02:14:24;;;;;;;32.60;10.20;;;;;;;29.73;nan;97777.91;4914992;29;20094;-64
2023/09/04 02:16:53;;;;;;;25.42;8.63;;;;;;;30.08;nan;97779.09;4918763;29;20131;-65
2023/09/04 02:19:39;;;;;;;21.70;8.48;;;;;;;30.37;nan;97788.16;4913823;29;20047;-64
2023/09/04 02:22:09;;;;;;;29.67;8.85;;;;;;;30.47;nan;97795.94;4915597;29;20061;-65
2023/09/04 02:24:41;;;;;;;31.27;10.00;;;;;;;30.61;nan;97797.16;4918725;29;20626;-65
2023/09/04 02:27:10;;;;;;;27.83;8.45;;;;;;;30.72;nan;97792.78;4898839;29;20055;-65
2023/09/04 02:29:40;;;;;;;22.38;8.52;;;;;;;30.92;nan;97801.97;4917634;29;20056;-65
2023/09/04 02:32:10;;;;;;;30.80;9.90;;;;;;;30.88;nan;97801.06;4903025;29;20051;-65
2023/09/04 02:34:40;;;;;;;29.60;9.35;;;;;;;31.03;nan;97797.63;4916101;29;20059;-65
2023/09/04 02:37:09;;;;;;;36.17;9.77;;;;;;;30.99;nan;97804.09;4915229;29;20059;-65
2023/09/04 02:39:38;;;;;;;36.53;10.48;;;;;;;30.98;nan;97802.53;4899322;29;20468;-65
2023/09/04 02:42:08;;;;;;;34.55;12.13;;;;;;;30.96;nan;97802.88;4903705;29;20051;-65
2023/09/04 02:44:37;;;;;;;33.92;11.60;;;;;;;31.11;nan;97807.59;4917176;29;20055;-65
2023/09/04 02:47:07;;;;;;;33.10;12.98;;;;;;;31.03;nan;97803.09;4900235;29;20130;-65
2023/09/04 02:49:36;;;;;;;34.85;12.63;;;;;;;31.18;nan;97801.56;4918017;29;20148;-65
2023/09/04 02:52:05;;;;;;;37.72;13.85;;;;;;;31.20;nan;97812.97;4920649;29;20055;-65
2023/09/04 02:54:38;;;;;;;37.63;13.00;;;;;;;31.16;nan;97814.78;4902135;29;20127;-65
2023/09/04 02:57:08;;;;;;;47.65;13.20;;;;;;;31.09;nan;97812.66;4895963;29;20051;-65
2023/09/04 02:59:37;;;;;;;34.83;12.77;;;;;;;31.14;nan;97823.34;4916988;29;20151;-65
2023/09/04 03:02:06;;;;;;;36.72;14.25;;;;;;;31.29;nan;97821.00;4921876;29;20048;-65
2023/09/04 03:04:36;;;;;;;46.63;15.98;;;;;;;31.23;nan;97823.19;4913102;29;20058;-65
2023/09/04 03:07:06;;;;;;;39.22;16.52;;;;;;;31.39;nan;97828.69;4917193;29;20067;-65
2023/09/04 03:09:35;;;;;;;41.88;18.02;;;;;;;31.40;nan;97819.34;4920474;29;20090;-64
2023/09/04 03:12:05;;;;;;;46.03;17.90;;;;;;;31.34;nan;97827.00;4918815;29;20047;-65
2023/09/04 03:14:34;;;;;;;49.50;16.17;;;;;;;31.43;nan;97818.63;4901634;29;20048;-65
2023/09/04 03:17:04;;;;;;;34.25;15.55;;;;;;;31.46;nan;97828.91;4916794;29;20055;-65
2023/09/04 03:19:33;;;;;;;34.60;16.05;;;;;;;31.52;nan;97828.28;4914414;29;20055;-65
2023/09/04 03:22:03;;;;;;;33.53;15.30;;;;;;;31.58;nan;97828.88;4908610;29;20143;-66
2023/09/04 03:24:32;;;;;;;37.40;13.43;;;;;;;31.50;nan;97840.75;4896193;29;20059;-65
2023/09/04 03:27:03;;;;;;;35.42;12.38;;;;;;;31.46;nan;97837.91;4899588;29;20055;-65
2023/09/04 03:29:33;;;;;;;44.53;14.40;;;;;;;31.53;nan;97837.28;4911451;29;20062;-65
2023/09/04 03:32:02;;;;;;;32.55;13.93;;;;;;;31.48;nan;97846.56;4909184;29;20484;-64
2023/09/04 03:34:32;;;;;;;30.25;12.00;;;;;;;31.51;nan;97847.81;4896081;29;20054;-65
2023/09/04 03:37:01;;;;;;;32.17;13.43;;;;;;;31.64;nan;97841.16;4901991;29;20142;-65
2023/09/04 03:39:36;;;;;;;36.70;13.88;;;;;;;31.53;nan;97848.25;4911240;29;20044;-64
2023/09/04 03:42:06;;;;;;;33.50;14.15;;;;;;;31.63;nan;97850.50;4914289;29;20059;-65
2023/09/04 03:44:35;;;;;;;36.50;14.93;;;;;;;31.77;nan;97850.09;4891531;29;20073;-65
2023/09/04 03:47:05;;;;;;;46.50;16.60;;;;;;;31.75;nan;97850.44;4893064;29;20055;-66
2023/09/04 03:49:35;;;;;;;43.55;14.98;;;;;;;31.88;nan;97862.91;4920711;29;20056;-66
2023/09/04 03:52:05;;;;;;;64.35;17.63;;;;;;;31.90;nan;97862.56;4917185;29;20650;-66
2023/09/04 03:54:34;;;;;;;34.67;13.40;;;;;;;31.83;nan;97856.88;4907841;29;20047;-65
2023/09/04 03:57:04;;;;;;;38.45;15.10;;;;;;;31.94;nan;97866.19;4923253;29;20139;-64
2023/09/04 03:59:33;;;;;;;39.83;16.95;;;;;;;31.95;nan;97859.56;4903155;29;20183;-66
2023/09/04 04:02:03;;;;;;;32.00;14.10;;;;;;;32.03;nan;97855.84;4911864;29;20048;-66
2023/09/04 04:04:32;;;;;;;39.95;14.73;;;;;;;32.17;nan;97866.41;4904551;29;20052;-66
2023/09/04 04:07:03;;;;;;;37.40;16.27;;;;;;;32.16;nan;97870.28;4898686;29;20066;-68
2023/09/04 04:09:32;;;;;;;45.67;15.10;;;;;;;32.14;nan;97872.56;4922953;29;20061;-66
2023/09/04 04:12:02;;;;;;;34.50;14.63;;;;;;;32.05;nan;97880.94;4908352;29;20476;-66
2023/09/04 04:14:32;;;;;;;43.08;11.82;;;;;;;32.16;nan;97873.03;4904967;29;20388;-65
2023/09/04 04:17:01;;;;;;;27.08;9.75;;;;;;;32.10;nan;97877.97;4910990;29;20135;-66
2023/09/04 04:19:31;;;;;;;29.02;10.10;;;;;;;32.27;nan;97872.13;4894353;29;20071;-65
2023/09/04 04:22:01;;;;;;;34.47;13.57;;;;;;;32.25;nan;97870.91;4901955;29;20063;-64
2023/09/04 04:24:44;;;;;;;27.55;11.63;;;;;;;32.21;nan;97872.75;4899047;29;20143;-66
2023/09/04 04:27:16;;;;;;;28.77;12.10;;;;;;;32.32;nan;97873.81;4912714;29;20051;-65
2023/09/04 04:29:49;;;;;;;43.95;12.10;;;;;;;32.39;nan;97876.72;4909954;29;20510;-63
2023/09/04 04:32:18;;;;;;;;;;;;;;;32.43;nan;97872.94;4923526;29;20052;-64
2023/09/04 04:34:48;;;;;;;35.15;11.50;;;;;;;32.44;nan;97871.75;4906027;29;19986;-65
2023/09/04 04:37:18;;;;;;;32.75;11.30;;;;;;;32.72;nan;97877.13;4896937;29;20043;-65
2023/09/04 04:39:48;;;;;;;29.05;10.90;;;;;;;32.92;nan;97883.47;4913197;29;20115;-64
2023/09/04 04:42:17;;;;;;;30.17;12.13;;;;;;;32.88;nan;97890.84;4897050;29;20547;-65
2023/09/04 04:44:47;;;;;;;25.60;9.63;;;;;;;33.13;nan;97877.63;4893538;29;20056;-65
2023/09/04 04:47:16;;;;;;;23.08;9.93;;;;;;;33.57;nan;97884.44;4891252;29;20079;-65
2023/09/04 04:49:46;;;;;;;33.15;11.70;;;;;;;33.82;nan;97884.94;4893294;29;20059;-65
2023/09/04 04:52:16;;;;;;;32.80;12.43;;;;;;;34.17;nan;97890.28;4874767;29;20485;-64
2023/09/04 04:54:45;;;;;;;39.60;11.63;;;;;;;34.32;nan;97891.31;4893091;29;20062;-64
2023/09/04 04:57:16;;;;;;;28.60;10.60;;;;;;;34.67;nan;97892.72;4909303;29;20056;-64
2023/09/04 04:59:45;;;;;;;23.17;8.95;;;;;;;34.86;nan;97896.50;4889977;29;20741;-66
2023/09/04 05:02:17;;;;;;;28.58;9.63;;;;;;;34.84;nan;97890.56;4908231;29;20052;-65
2023/09/04 05:04:47;;;;;;;26.92;9.65;;;;;;;34.78;nan;97890.13;4908978;29;20059;-65
2023/09/04 05:07:19;;;;;;;27.98;9.85;;;;;;;35.08;nan;97892.88;4892688;29;20357;-64
2023/09/04 05:09:53;;;;;;;26.00;8.70;;;;;;;35.25;nan;97889.59;4911048;29;20051;-65
2023/09/04 05:12:23;;;;;;;32.63;10.13;;;;;;;34.88;nan;97880.41;4913104;29;20118;-64
2023/09/04 05:14:53;;;;;;;27.70;8.85;;;;;;;35.54;nan;97886.00;4895008;29;20059;-65
2023/09/04 05:17:22;;;;;;;27.13;9.30;;;;;;;35.76;nan;97887.06;4899825;29;20048;-65
2023/09/04 05:19:53;;;;;;;26.83;10.48;;;;;;;36.03;nan;97882.19;4891522;29;20384;-64
2023/09/04 05:22:23;;;;;;;24.98;10.23;;;;;;;35.74;nan;97891.38;4891120;29;20052;-65
2023/09/04 05:24:53;;;;;;;30.17;10.63;;;;;;;36.19;nan;97893.81;4907947;29;20055;-66
2023/09/04 05:27:22;;;;;;;29.33;9.48;;;;;;;36.04;nan;97887.34;4906840;29;20063;-66
2023/09/04 05:29:53;;;;;;;29.98;9.60;;;;;;;36.02;nan;97894.41;4907719;29;20062;-65
2023/09/04 05:32:22;;;;;;;27.00;9.63;;;;;;;36.34;nan;97881.72;4905902;29;20397;-65
2023/09/04 05:34:55;;;;;;;22.38;8.52;;;;;;;36.33;nan;97882.91;4908728;29;20346;-66
2023/09/04 05:37:24;;;;;;;;;;;;;;;35.92;nan;97875.81;4886687;29;20067;-66
2023/09/04 05:39:53;;;;;;;22.98;9.90;;;;;;;36.09;nan;97880.69;4907456;29;19977;-67
2023/09/04 05:42:23;;;;;;;23.30;9.05;;;;;;;36.10;nan;97871.25;4907230;29;20051;-66
2023/09/04 05:44:52;;;;;;;32.47;9.38;;;;;;;36.47;nan;97876.69;4908539;29;20135;-64
2023/09/04 05:47:21;;;;;;;23.67;8.63;;;;;;;36.28;nan;97868.66;4909235;29;20075;-64
2023/09/04 05:49:51;;;;;;;28.92;10.23;;;;;;;36.24;nan;97857.63;4911145;29;20044;-65
2023/09/04 05:52:20;;;;;;;22.90;8.43;;;;;;;36.54;nan;97860.19;4904970;29;20127;-65
2023/09/04 05:54:49;;;;;;;28.40;8.10;;;;;;;36.15;nan;97859.09;4906431;29;20052;-65
2023/09/04 05:57:19;;;;;;;23.25;7.90;;;;;;;36.38;nan;97862.44;4910657;29;20491;-65
2023/09/04 05:59:48;;;;;;;24.10;8.30;;;;;;;37.05;nan;97854.59;4915622;29;20496;-65
2023/09/04 06:02:18;;;;;;;24.90;9.57;;;;;;;36.47;nan;97860.13;4909169;29;20055;-65
2023/09/04 06:04:47;;;;;;;28.60;8.80;;;;;;;36.61;nan;97859.47;4910955;29;20048;-66
2023/09/04 06:07:17;;;;;;;19.48;8.38;;;;;;;36.68;nan;97856.75;4912127;29;20052;-65
2023/09/04 06:09:46;;;;;;;25.35;8.07;;;;;;;36.84;nan;97855.28;4908501;29;20054;-66
2023/09/04 06:12:15;;;;;;;26.23;7.15;;;;;;;36.84;nan;97854.47;4904908;29;20068;-65
2023/09/04 06:14:45;;;;;;;23.30;8.38;;;;;;;36.77;nan;97848.94;4905909;29;20048;-65
2023/09/04 06:17:14;;;;;;;31.05;9.00;;;;;;;36.97;nan;97858.50;4913138;29;20565;-64
2023/09/04 06:19:43;;;;;;;23.08;7.82;;;;;;;36.87;nan;97848.19;4912607;29;20060;-65
2023/09/04 06:22:13;;;;;;;20.67;8.18;;;;;;;36.80;nan;97845.38;4912360;29;20536;-66
2023/09/04 06:24:42;;;;;;;22.48;8.05;;;;;;;37.01;nan;97852.97;4910056;29;20060;-66
2023/09/04 06:27:11;;;;;;;16.10;6.22;;;;;;;36.60;nan;97844.09;4909787;29;20055;-66
2023/09/04 06:29:40;;;;;;;24.25;8.10;;;;;;;36.82;nan;97854.09;4894337;29;20682;-66
2023/09/04 06:32:13;;;;;;;23.70;6.60;;;;;;;36.66;nan;97845.31;4910898;29;20060;-65
2023/09/04 06:34:42;;;;;;;19.00;6.70;;;;;;;36.45;nan;97856.97;4901789;29;20066;-65
2023/09/04 06:37:11;;;;;;;17.65;6.95;;;;;;;36.67;nan;97847.69;4907422;29;20051;-65
2023/09/04 06:39:41;;;;;;;22.17;7.43;;;;;;;36.82;nan;97837.53;4917962;29;20058;-65
2023/09/04 06:42:11;;;;;;;18.92;6.68;;;;;;;36.73;nan;97834.31;4903464;29;20055;-63
2023/09/04 06:44:40;;;;;;;23.48;7.18;;;;;;;36.82;nan;97832.00;4903407;29;20062;-66
2023/09/04 06:47:25;;;;;;;21.13;6.78;;;;;;;36.70;nan;97835.88;4907297;29;20051;-65
2023/09/04 06:49:55;;;;;;;22.67;7.00;;;;;;;36.74;nan;97825.63;4916589;29;20716;-65
2023/09/04 06:52:24;;;;;;;20.00;7.40;;;;;;;36.79;nan;97827.25;4911099;29;20713;-66
2023/09/04 06:54:56;;;;;;;21.45;8.15;;;;;;;36.77;nan;97835.94;4917056;29;20130;-65
2023/09/04 06:57:42;;;;;;;19.98;7.07;;;;;;;36.43;nan;97837.25;4902579;29;20130;-65
2023/09/04 07:00:13;;;;;;;20.83;8.05;;;;;;;36.49;nan;97824.69;4898621;29;20085;-65
2023/09/04 07:02:43;;;;;;;28.92;8.43;;;;;;;36.59;nan;97826.75;4902715;29;20052;-64
2023/09/04 07:05:13;;;;;;;24.25;7.68;;;;;;;36.62;nan;97825.19;4895494;29;20619;-65
2023/09/04 07:07:42;;;;;;;22.45;8.05;;;;;;;36.33;nan;97832.47;4911843;29;20155;-64
2023/09/04 07:10:11;;;;;;;18.95;8.35;;;;;;;36.55;nan;97827.88;4897577;29;20059;-64
2023/09/04 07:12:42;;;;;;;28.27;8.45;;;;;;;36.12;nan;97816.53;4919283;29;20075;-65
2023/09/04 07:15:11;;;;;;;18.85;7.82;;;;;;;36.02;nan;97815.25;4921344;29;20056;-65
2023/09/04 07:17:40;;;;;;;25.95;8.02;;;;;;;36.02;nan;97809.75;4906579;29;20076;-64
2023/09/04 07:20:13;;;;;;;27.50;8.98;;;;;;;36.36;nan;97815.94;4905660;29;20576;-64
2023/09/04 07:22:42;;;;;;;21.55;8.13;;;;;;;36.37;nan;97808.44;4907818;29;20059;-65
2023/09/04 07:25:11;;;;;;;23.38;8.68;;;;;;;36.43;nan;97809.66;4906682;29;20722;-64
2023/09/04 07:27:41;;;;;;;26.20;9.10;;;;;;;36.36;nan;97804.88;4907446;29;20059;-64
2023/09/04 07:30:11;;;;;;;22.45;8.10;;;;;;;36.23;nan;97806.38;4913403;29;20048;-64
2023/09/04 07:32:41;;;;;;;22.50;8.10;;;;;;;36.13;nan;97800.78;4904754;29;20052;-63
2023/09/04 07:35:10;;;;;;;20.17;7.80;;;;;;;36.29;nan;97799.31;4904649;29;20126;-64
2023/09/04 07:37:40;;;;;;;23.23;7.90;;;;;;;36.23;nan;97794.56;4907839;29;20187;-64
2023/09/04 07:40:10;;;;;;;22.75;8.80;;;;;;;36.21;nan;97783.09;4907650;29;20044;-64
2023/09/04 07:42:42;;;;;;;20.55;7.63;;;;;;;36.09;nan;97786.13;4907397;29;20054;-63
2023/09/04 07:45:12;;;;;;;23.77;7.75;;;;;;;36.12;nan;97783.44;4906494;29;20047;-64
2023/09/04 07:47:42;;;;;;;21.58;7.50;;;;;;;36.29;nan;97782.00;4905387;29;20164;-65
2023/09/04 07:50:11;;;;;;;25.73;7.72;;;;;;;36.36;nan;97779.28;4903457;29;20052;-64
2023/09/04 07:52:41;;;;;;;19.33;7.05;;;;;;;35.95;nan;97781.31;4911172;29;20055;-65
2023/09/04 07:55:11;;;;;;;19.35;7.82;;;;;;;36.05;nan;97775.09;4910656;29;20067;-66
2023/09/04 07:57:40;;;;;;;22.33;7.72;;;;;;;35.91;nan;97766.69;4906142;29;20052;-65
2023/09/04 08:00:26;;;;;;;19.52;6.82;;;;;;;35.97;nan;97762.44;4902022;29;20054;-65
2023/09/04 08:03:02;;;;;;;23.65;7.82;;;;;;;35.83;nan;97767.81;4921579;29;20502;-64
2023/09/04 08:05:31;;;;;;;25.50;7.45;;;;;;;35.88;nan;97764.72;4909385;29;20435;-64
2023/09/04 08:08:02;;;;;;;25.88;6.32;;;;;;;36.04;nan;97754.19;4907267;29;20184;-63
2023/09/04 08:10:31;;;;;;;20.38;7.82;;;;;;;36.10;nan;97758.19;4905116;29;20108;-64
2023/09/04 08:13:00;;;;;;;23.60;6.65;;;;;;;36.11;nan;97754.28;4890350;29;20054;-64
2023/09/04 08:15:33;;;;;;;20.00;6.18;;;;;;;35.93;nan;97748.63;4902076;29;20067;-65
2023/09/04 08:18:03;;;;;;;21.33;7.13;;;;;;;35.65;nan;97747.59;4902803;29;20055;-64
2023/09/04 08:20:33;;;;;;;20.65;6.65;;;;;;;35.82;nan;97746.94;4888259;29;20083;-65
2023/09/04 08:23:07;;;;;;;13.85;5.63;;;;;;;35.73;nan;97732.69;4906284;29;20119;-63
2023/09/04 08:25:37;;;;;;;17.17;6.07;;;;;;;35.74;nan;97742.56;4905182;29;20056;-64
2023/09/04 08:28:06;;;;;;;17.73;6.10;;;;;;;35.83;nan;97732.00;4899417;29;20056;-65
2023/09/04 08:30:36;;;;;;;22.27;6.22;;;;;;;35.84;nan;97745.41;4892388;29;20062;-63
2023/09/04 08:33:05;;;;;;;18.40;6.35;;;;;;;35.59;nan;97736.88;4906227;29;20071;-64
2023/09/04 08:35:35;;;;;;;18.17;6.47;;;;;;;35.34;nan;97733.13;4920339;29;20048;-63
2023/09/04 08:38:06;;;;;;;18.65;6.57;;;;;;;35.44;nan;97731.63;4910928;29;20051;-63
2023/09/04 08:40:41;;;;;;;17.27;6.15;;;;;;;35.48;nan;97716.72;4910435;29;20107;-65
2023/09/04 08:43:12;;;;;;;15.52;5.57;;;;;;;35.63;nan;97723.13;4903781;29;20060;-63
2023/09/04 08:45:42;;;;;;;16.13;5.93;;;;;;;35.72;nan;97709.06;4904432;29;20056;-65
2023/09/04 08:48:13;;;;;;;16.55;5.90;;;;;;;35.70;nan;97719.69;4905461;29;20044;-63
2023/09/04 08:50:43;;;;;;;19.00;5.78;;;;;;;35.67;nan;97713.00;4912504;29;20123;-64
2023/09/04 08:53:12;;;;;;;19.30;5.82;;;;;;;35.68;nan;97713.75;4907542;29;20048;-64
2023/09/04 08:55:42;;;;;;;20.13;5.22;;;;;;;35.75;nan;97717.38;4905910;29;20071;-64
2023/09/04 08:58:12;;;;;;;18.20;5.65;;;;;;;35.74;nan;97704.75;4901696;29;20520;-64
2023/09/04 09:00:42;;;;;;;15.15;5.20;;;;;;;35.72;nan;97709.06;4903654;29;20052;-64
2023/09/04 09:03:13;;;;;;;14.18;5.00;;;;;;;35.54;nan;97715.19;4886997;29;20474;-64
2023/09/04 09:05:55;;;;;;;17.60;6.07;;;;;;;35.53;nan;97705.38;4911777;29;20044;-64
2023/09/04 09:08:25;;;;;;;23.30;7.40;;;;;;;35.55;nan;97713.22;4905130;29;20052;-64
2023/09/04 09:10:56;;;;;;;24.52;6.40;;;;;;;35.63;nan;97697.56;4905123;29;20103;-66
2023/09/04 09:13:25;;;;;;;15.85;6.60;;;;;;;35.59;nan;97712.09;4901541;29;20086;-65
2023/09/04 09:15:55;;;;;;;16.70;5.80;;;;;;;35.60;nan;97701.88;4905332;29;20631;-66
2023/09/04 09:18:42;;;;;;;15.85;6.32;;;;;;;35.59;nan;97709.34;4904868;29;20138;-64
2023/09/04 09:21:29;;;;;;;18.17;6.85;;;;;;;35.24;nan;97692.50;4906782;29;20048;-64
2023/09/04 09:24:15;;;;;;;17.10;5.30;;;;;;;35.41;nan;97694.63;4900358;29;20048;-64
2023/09/04 09:26:47;;;;;;;14.50;5.70;;;;;;;35.42;nan;97684.41;4906113;29;20044;-64
2023/09/04 09:29:20;;;;;;;20.75;5.65;;;;;;;35.46;nan;97685.22;4907045;29;20126;-65
2023/09/04 09:31:52;;;;;;;;;;;;;;;35.55;nan;97686.47;4906723;29;20054;-64
2023/09/04 09:34:22;;;;;;;17.92;5.50;;;;;;;35.52;nan;97680.94;4907720;29;20260;-65
2023/09/04 09:36:53;;;;;;;17.17;5.90;;;;;;;35.42;nan;97679.69;4912347;29;20051;-66
2023/09/04 09:39:23;;;;;;;18.77;5.95;;;;;;;35.37;nan;97677.28;4909765;29;20055;-65
2023/09/04 09:41:52;;;;;;;17.05;5.20;;;;;;;35.45;nan;97681.66;4901257;29;20044;-65
2023/09/04 09:44:21;;;;;;;13.75;5.20;;;;;;;35.34;nan;97675.28;4886816;29;20060;-65
2023/09/04 09:46:53;;;;;;;16.30;5.43;;;;;;;35.40;nan;97682.03;4902214;29;20507;-66
2023/09/04 09:49:22;;;;;;;15.90;5.72;;;;;;;35.40;nan;97675.72;4905189;29;20044;-66
2023/09/04 09:51:53;;;;;;;14.68;5.85;;;;;;;35.47;nan;97670.28;4907746;29;20377;-67
2023/09/04 09:54:46;;;;;;;16.67;6.80;;;;;;;35.48;nan;97669.09;4905414;29;20166;-64
2023/09/04 09:57:18;;;;;;;11.60;5.13;;;;;;;35.39;nan;97669.44;4903564;29;20139;-65
2023/09/04 09:59:51;;;;;;;18.25;6.10;;;;;;;35.39;nan;97658.41;4907983;29;20052;-67
2023/09/04 10:02:22;;;;;;;23.02;5.70;;;;;;;35.44;nan;97663.56;4907872;29;20055;-63
2023/09/04 10:04:55;;;;;;;10.52;4.60;;;;;;;35.45;nan;97653.34;4910875;29;20094;-65
2023/09/04 10:07:29;;;;;;;11.70;5.28;;;;;;;35.43;nan;97650.97;4895169;29;20179;-65
2023/09/04 10:10:03;;;;;;;18.40;5.05;;;;;;;35.21;nan;97642.91;4897340;29;20064;-64
2023/09/04 10:12:56;;;;;;;20.48;5.32;;;;;;;35.27;nan;97644.16;4910481;29;20047;-66
2023/09/04 10:15:28;;;;;;;15.45;5.07;;;;;;;35.28;nan;97646.50;4890200;29;20056;-65
2023/09/04 10:18:10;;;;;;;20.35;5.45;;;;;;;35.24;nan;97648.44;4907297;29;20063;-65
2023/09/04 10:20:42;;;;;;;16.25;5.32;;;;;;;35.30;nan;97649.69;4906454;29;20079;-65
2023/09/04 10:23:14;;;;;;;20.30;6.72;;;;;;;35.28;nan;97642.94;4903294;29;20060;-65
2023/09/04 10:25:58;;;;;;;24.00;5.77;;;;;;;35.26;nan;97637.06;4905193;29;20063;-65
2023/09/04 10:28:41;;;;;;;25.65;5.80;;;;;;;35.22;nan;97636.22;4909162;29;20302;-64
2023/09/04 10:31:13;;;;;;;21.70;5.82;;;;;;;35.22;nan;97637.03;4907952;29;20095;-64
2023/09/04 10:33:43;;;;;;;23.40;5.88;;;;;;;35.18;nan;97638.16;4908294;29;20504;-65
2023/09/04 10:36:13;;;;;;;20.98;5.63;;;;;;;35.17;nan;97637.38;4901045;29;20063;-64
2023/09/04 10:38:43;;;;;;;16.65;5.32;;;;;;;35.18;nan;97638.16;4910855;29;20056;-65
2023/09/04 10:41:15;;;;;;;17.10;4.75;;;;;;;35.13;nan;97642.03;4905740;29;20051;-65
2023/09/04 10:43:45;;;;;;;17.15;4.72;;;;;;;35.06;nan;97634.47;4907268;29;20056;-65
2023/09/04 10:46:15;;;;;;;18.23;5.47;;;;;;;34.94;nan;97632.00;4903459;29;20086;-64
2023/09/04 10:48:47;;;;;;;17.55;5.10;;;;;;;34.91;nan;97621.78;4904890;29;20055;-65
2023/09/04 10:51:38;;;;;;;13.35;4.78;;;;;;;34.96;nan;97620.63;4902203;29;20059;-64
2023/09/04 10:54:13;;;;;;;19.33;4.53;;;;;;;34.91;nan;97623.72;4896817;29;20715;-66
2023/09/04 10:56:56;;;;;;;16.13;4.75;;;;;;;34.92;nan;97623.34;4917261;29;20083;-63
2023/09/04 10:59:28;;;;;;;13.27;4.97;;;;;;;34.90;nan;97617.44;4915649;29;20044;-65
2023/09/04 11:02:43;;;;;;;20.58;4.75;;;;;;;34.83;nan;97614.59;4914084;29;20575;-67
2023/09/04 11:05:13;;;;;;;14.30;4.55;;;;;;;34.72;nan;97603.50;4909039;29;20112;-65
2023/09/04 11:07:43;;;;;;;15.73;5.07;;;;;;;34.64;nan;97610.06;4907097;29;20059;-67
2023/09/04 11:10:17;;;;;;;16.80;5.03;;;;;;;34.65;nan;97606.13;4898025;29;20076;-67
2023/09/04 11:12:47;;;;;;;12.70;4.50;;;;;;;34.60;nan;97608.44;4914223;29;20051;-65
2023/09/04 11:15:17;;;;;;;14.48;5.43;;;;;;;34.58;nan;97608.81;4886940;29;20048;-63
2023/09/04 11:17:50;;;;;;;20.00;5.63;;;;;;;34.57;nan;97603.69;4909138;29;20083;-62
2023/09/04 11:20:26;;;;;;;17.50;4.97;;;;;;;34.50;nan;97601.66;4561172;29;10000110;-65
2023/09/04 11:22:57;;;;;;;17.02;5.95;;;;;;;34.49;nan;97611.06;4906421;29;20075;-64
2023/09/04 11:25:28;;;;;;;13.00;5.28;;;;;;;34.39;nan;97605.47;4890072;29;20059;-66
2023/09/04 11:27:58;;;;;;;17.77;5.65;;;;;;;34.31;nan;97610.06;4906048;29;20052;-65
2023/09/04 11:30:27;;;;;;;16.25;5.68;;;;;;;34.21;nan;97605.25;4910161;29;20219;-64
2023/09/04 11:32:59;;;;;;;20.67;5.50;;;;;;;34.20;nan;97606.41;4899873;29;20162;-64
2023/09/04 11:35:29;;;;;;;12.93;5.45;;;;;;;34.16;nan;97611.88;4903364;29;20111;-64
2023/09/04 11:38:00;;;;;;;22.15;5.47;;;;;;;34.12;nan;97610.97;4910736;29;20066;-64
2023/09/04 11:40:33;;;;;;;18.85;6.00;;;;;;;34.11;nan;97612.16;4894982;29;20110;-62
2023/09/04 11:43:03;;;;;;;19.30;5.30;;;;;;;34.14;nan;97610.63;4915505;29;20051;-66
2023/09/04 11:45:32;;;;;;;21.08;5.75;;;;;;;34.07;nan;97611.34;4912881;29;20140;-63
2023/09/04 11:48:02;;;;;;;17.95;5.70;;;;;;;34.04;nan;97614.00;4916187;29;20047;-64
2023/09/04 11:50:31;;;;;;;16.90;5.28;;;;;;;34.04;nan;97612.06;4916737;29;20048;-63
2023/09/04 11:53:01;;;;;;;16.23;5.18;;;;;;;34.01;nan;97607.31;4914306;29;20107;-65
2023/09/04 11:55:33;;;;;;;18.65;5.93;;;;;;;33.97;nan;97611.19;4917263;29;20112;-64
2023/09/04 11:58:03;;;;;;;19.08;5.13;;;;;;;33.96;nan;97612.34;4900081;29;20090;-65
2023/09/04 12:00:33;;;;;;;21.33;6.03;;;;;;;33.93;nan;97621.34;4911392;29;20070;-63